CW1234 Weather Reports


Display with metric or nautical units.
time (UTC)temp
F
wind
direction
speed
MPH
gust
MPH
rain 1hr
in
rain 24hr
in
rain mn
in
humidity
%
barometer
mb
20220118115959 36 79 0.0 2.0 0.00 0.00 0.00 42 1009.5
20220118105958 36 98 1.0 2.0 0.00 0.00 0.00 43 1011.2
20220118095946 34 76 0.0 1.0 0.00 0.00 0.00 44 1012.4
20220118085945 34 91 0.0 1.0 0.00 0.00 0.00 45 1013.2
20220118075945 36 94 0.0 1.0 0.00 0.00 0.00 40 1014.3
20220118065944 35 100 0.0 1.0 0.00 0.00 0.00 40 1015.2
20220118055943 36 91 0.0 1.0 0.00 0.00 0.00 38 1015.9
20220118045943 37 94 0.0 2.0 0.00 0.00 0.00 36 1016.4
20220118035942 40 113 0.0 3.0 0.00 0.00 0.00 33 1016.4
20220118025941 41 105 0.0 4.0 0.00 0.00 0.00 31 1015.6
20220118015940 41 109 1.0 3.0 0.00 0.00 0.00 31 1013.3
20220118005941 44 105 0.0 2.0 0.00 0.00 0.00 28 1013.8
20220117235939 48 70 0.0 2.0 0.00 0.00 0.00 24 1012.5
20220117225938 55 312 0.0 5.0 0.00 0.00 0.00 17 1013.1
20220117215938 57 276 0.0 4.0 0.00 0.00 0.00 17 1014.0
20220117205938 57 319 1.0 5.0 0.00 0.00 0.00 17 1014.4
20220117195937 57 272 0.0 7.0 0.00 0.00 0.00 16 1014.8
20220117185937 57 72 1.0 6.0 0.00 0.01 0.00 17 1016.1
20220117175936 55 77 0.0 4.0 0.00 0.01 0.00 17 1016.8
20220117170005 51 7 1.0 2.0 0.00 0.01 0.00 20 1016.2
20220117155935 45 81 0.0 2.0 0.00 0.01 0.00 28 1014.7
20220117150003 39 71 2.0 3.0 0.00 0.01 0.00 34 1013.5
20220117140003 36 108 0.0 3.0 0.00 0.01 0.00 38 1013.6
20220117130003 28 89 0.0 1.0 0.00 0.01 0.00 54 1011.9